Miami Lakes, Florida
Current Conditions -  °F | °C
As of 9:53 PM on Tuesday 21 Oct 2014 (Local Time) from KOPF Reporting Station
Clear Clear  
Wind Chill: 74°   Ceiling: Unl
Heat Index: 74°   Visibility: 10mi
Dew Point: 69°   Wind: 5mph
Humidity: 85%   Direction: 150°SSE
Pressure: 29.96"   Gusts: NA
Location:  25.9357°N, 80.3817°W
Report Text: KOPF 220153Z AUTO 15004KT 10SM CLR 23/21 A2996 RMK AO2 SLP147 T02330206
Loading
Personal Weather Stations






























Interactive Weather Map
Tropical Storm Tracking
New forecast layout! Learn more

10-Day Weather Forecast

Advertisements
Track Severe Weather on mobile